Toronto Pearson, Ontario

9:21 AM EDT on September 26, 2016 (GMT -0400)
Toronto-Pearson International | | Change Station

Elev 568 ft 43.68 °N, 79.63 °W | Updated 21 minutes ago

Overcast
Overcast
61 °F
Feels Like 61 °F
N
8
Wind Variable Wind from ESE

Today
High -- | Low -- °F
--% Chance of Precip.
Yesterday
High -- | Low -- °F
Precip. -- in
Pressure 29.92 in
Visibility 15.0 miles
Clouds Scattered Clouds 6500 ft
Mostly Cloudy 13000 ft
Overcast 15000 ft
Dew Point 52 °F
Humidity 72%
Rainfall 0.00 in
Snow Depth Not available.
7:10 AM 7:07 PM
Waning Crescent, 19% visible
METAR CYYZ 261300Z 12007KT 15SM SCT065 BKN130 OVC150 16/11 A2991 RMK SC3AC3AC2 SLP132 DENSITY ALT 800FT
Pressure 29.92 in
Visibility 15.0 miles
Clouds Scattered Clouds 6500 ft
Mostly Cloudy 13000 ft
Overcast 15000 ft
Dew Point 52 °F
Humidity 72%
Rainfall 0.00 in
Snow Depth Not available.
7:10 AM 7:07 PM
Waning Crescent, 19% visible
METAR CYYZ 261300Z 12007KT 15SM SCT065 BKN130 OVC150 16/11 A2991 RMK SC3AC3AC2 SLP132 DENSITY ALT 800FT

10-Day Weather Forecast

Almanac

Astronomy

Sep. 26, 2016 Rise Set
Actual Time
Civil Twilight
Nautical Twilight
Astronomical Twilight
Moon
Length of Visible Light
Length of Day
Tomorrow will be .
, % of the Moon is Illuminated

Today's Extremes

Country Highs Country Lows

Community

WunderPhotos

Upload Photos

1,941,881 photos uploaded!

WunderBlog® & News

Nearby

Air Quality

  Air Quality AQ Index Pollutant
Not available.

Snow Depth

Station Depth Elevation

Earthquake Activity

City Distance Mag. Time & Date
Minimum magnitude displayed is 2.5.

Coastal Water Temperatures

Place Temperature

Stations

Nearby Weather Stations

Station Location Temp. Windchill Dew Point Humidity Wind Precip. Elev Updated Type
                   

Watches & Warnings

There are currently no watches in effect.